Time;durP1;ratioP1;P1;durP2;ratioP2;P2;SDS_P1;SDS_P2;PMS_P1;PMS_P2;Temp;Humidity;BMP_temperature;BMP_pressure;BME280_temperature;BME280_humidity;BME280_pressure;Samples;Min_cycle;Max_cycle;Signal;HPM_P1;HPM_P2
2022/07/27 00:02:13;;;;;;;2.13;0.30;;;15.40;99.90;;;;;;6251784;22;20098;-93
2022/07/27 00:04:39;;;;;;;0.90;0.30;;;15.40;99.90;;;;;;6251817;22;20249;-94
2022/07/27 00:07:04;;;;;;;1.13;0.30;;;15.40;99.90;;;;;;6251830;22;20258;-94
2022/07/27 00:09:30;;;;;;;1.80;0.50;;;15.40;99.90;;;;;;6251727;22;20106;-91
2022/07/27 00:11:56;;;;;;;0.82;0.22;;;15.40;99.90;;;;;;6251568;22;20027;-94
2022/07/27 00:14:21;;;;;;;1.50;0.60;;;15.40;99.90;;;;;;6252174;22;20090;-94
2022/07/27 00:16:47;;;;;;;0.55;0.20;;;15.40;99.90;;;;;;6277279;22;20024;-93
2022/07/27 00:19:13;;;;;;;1.70;0.30;;;15.40;99.90;;;;;;6254481;22;20341;-91
2022/07/27 00:21:38;;;;;;;1.80;0.30;;;15.40;99.90;;;;;;6272665;22;20264;-92
2022/07/27 00:24:04;;;;;;;2.08;0.55;;;15.40;99.90;;;;;;6262077;22;20062;-93
2022/07/27 00:26:30;;;;;;;0.80;0.40;;;15.50;99.90;;;;;;6251894;22;20014;-92
2022/07/27 00:28:55;;;;;;;1.38;0.40;;;15.40;99.90;;;;;;6251576;22;20103;-95
2022/07/27 00:31:21;;;;;;;0.63;0.28;;;15.50;99.90;;;;;;6251684;22;20459;-94
2022/07/27 00:33:47;;;;;;;1.00;0.30;;;15.50;99.90;;;;;;6251648;22;20016;-92
2022/07/27 00:36:12;;;;;;;1.37;0.20;;;15.40;99.90;;;;;;6251517;22;20016;-92
2022/07/27 00:38:38;;;;;;;1.00;0.30;;;15.40;99.90;;;;;;6251962;22;20246;-93
2022/07/27 00:41:04;;;;;;;1.02;0.28;;;15.40;99.90;;;;;;6251415;22;20338;-93
2022/07/27 00:43:30;;;;;;;1.08;0.30;;;15.40;99.90;;;;;;6251535;22;20018;-90
2022/07/27 00:45:56;;;;;;;1.10;0.30;;;15.40;99.90;;;;;;6251535;22;20091;-90
2022/07/27 00:48:21;;;;;;;1.03;0.30;;;15.40;99.90;;;;;;6251659;22;20016;-94
2022/07/27 00:50:47;;;;;;;0.73;0.30;;;15.30;99.90;;;;;;6250942;22;20250;-93
2022/07/27 00:53:13;;;;;;;1.15;0.30;;;15.30;99.90;;;;;;6251609;22;20050;-93
2022/07/27 00:55:40;;;;;;;1.83;0.30;;;15.20;99.90;;;;;;6251299;22;20042;-94
2022/07/27 00:58:07;;;;;;;;;;;15.20;99.90;;;;;;6251747;22;20098;-93
2022/07/27 01:00:35;;;;;;;0.75;0.30;;;15.10;99.90;;;;;;6255777;22;19938;-93
2022/07/27 01:04:04;;;;;;;0.63;0.30;;;15.10;99.90;;;;;;6252761;22;20464;-91
2022/07/27 01:06:31;;;;;;;3.40;0.40;;;15.00;99.90;;;;;;6251124;22;20396;-92
2022/07/27 01:11:46;;;;;;;1.17;0.40;;;14.90;99.90;;;;;;6276704;22;20023;-92
2022/07/27 01:14:14;;;;;;;1.05;0.20;;;14.90;99.90;;;;;;6251107;22;20010;-93
2022/07/27 01:16:40;;;;;;;0.82;0.50;;;14.80;99.90;;;;;;6251247;22;20016;-93
2022/07/27 01:19:10;;;;;;;1.40;0.22;;;14.80;99.90;;;;;;6251145;22;20045;-93
2022/07/27 01:21:36;;;;;;;0.65;0.30;;;14.80;99.90;;;;;;6251129;22;20117;-94
2022/07/27 01:24:06;;;;;;;2.08;0.40;;;14.70;99.90;;;;;;6276474;22;20031;-90
2022/07/27 01:26:33;;;;;;;1.02;0.40;;;14.70;99.90;;;;;;6250901;22;20051;-93
2022/07/27 01:29:00;;;;;;;0.85;0.40;;;14.60;99.90;;;;;;6250977;22;20023;-93
2022/07/27 01:31:27;;;;;;;1.80;0.52;;;14.60;99.90;;;;;;6276591;22;20062;-94
2022/07/27 01:33:53;;;;;;;0.70;0.22;;;14.50;99.90;;;;;;6251139;22;20023;-92
2022/07/27 01:36:19;;;;;;;1.85;0.40;;;14.50;99.90;;;;;;6250806;22;20015;-93
2022/07/27 01:38:45;;;;;;;1.75;0.60;;;14.40;99.90;;;;;;6251354;22;20012;-90
2022/07/27 01:41:12;;;;;;;0.30;0.25;;;14.40;99.90;;;;;;6276601;22;20015;-93
2022/07/27 01:43:38;;;;;;;0.82;0.30;;;14.40;99.90;;;;;;6276681;22;20094;-90
2022/07/27 01:46:04;;;;;;;1.02;0.50;;;14.30;99.90;;;;;;6250817;22;20047;-92
2022/07/27 01:48:29;;;;;;;1.65;0.30;;;14.30;99.90;;;;;;6250915;22;20027;-93
2022/07/27 01:50:56;;;;;;;0.63;0.30;;;14.20;99.90;;;;;;6251203;22;20437;-95
2022/07/27 01:53:22;;;;;;;0.98;0.47;;;14.20;99.90;;;;;;6251004;22;20019;-91
2022/07/27 01:55:49;;;;;;;0.52;0.30;;;14.10;99.90;;;;;;6250604;22;20019;-93
2022/07/27 01:58:14;;;;;;;1.67;0.38;;;14.00;99.90;;;;;;6250633;22;20016;-91
2022/07/27 02:00:40;;;;;;;1.10;0.30;;;14.00;99.90;;;;;;6276454;22;20008;-92
2022/07/27 02:03:08;;;;;;;1.42;0.38;;;14.00;99.90;;;;;;6250341;22;20027;-92
2022/07/27 02:05:35;;;;;;;1.38;0.40;;;13.90;99.90;;;;;;6250653;22;20034;-94
2022/07/27 02:08:01;;;;;;;1.05;0.50;;;13.90;99.90;;;;;;6250309;22;20081;-93
2022/07/27 02:10:37;;;;;;;2.17;0.47;;;13.80;99.90;;;;;;6250492;22;20026;-92
2022/07/27 02:13:50;;;;;;;3.47;0.68;;;13.70;99.90;;;;;;6275518;22;20023;-92
2022/07/27 02:16:17;;;;;;;1.80;0.30;;;13.70;99.90;;;;;;6250195;22;20523;-92
2022/07/27 02:18:47;;;;;;;0.55;0.25;;;13.70;99.90;;;;;;6250566;22;20022;-93
2022/07/27 02:21:12;;;;;;;1.27;0.60;;;13.70;99.90;;;;;;6250469;22;20043;-94
2022/07/27 02:23:39;;;;;;;0.70;0.30;;;13.70;99.90;;;;;;6275322;22;20349;-94
2022/07/27 02:26:06;;;;;;;1.88;0.30;;;13.70;99.90;;;;;;6250405;22;20257;-94
2022/07/27 02:28:32;;;;;;;1.30;0.45;;;13.70;99.90;;;;;;6250471;22;20523;-94
2022/07/27 02:31:53;;;;;;;;;;;;;;;;;;;;;
2022/07/27 02:34:37;;;;;;;2.58;0.40;;;13.70;99.90;;;;;;6256522;22;20020;-91
2022/07/27 02:37:03;;;;;;;2.20;0.40;;;13.70;99.90;;;;;;6275892;22;20025;-93
2022/07/27 02:39:28;;;;;;;1.17;0.40;;;13.70;99.90;;;;;;6250390;22;20015;-95
2022/07/27 02:41:54;;;;;;;1.03;0.50;;;13.70;99.90;;;;;;6250667;22;20149;-94
2022/07/27 02:44:20;;;;;;;1.30;0.47;;;13.70;99.90;;;;;;6250792;22;20246;-95
2022/07/27 02:46:45;;;;;;;0.93;0.40;;;13.70;99.90;;;;;;6250118;22;20146;-94
2022/07/27 02:49:11;;;;;;;2.70;0.60;;;13.70;99.90;;;;;;6250636;22;20252;-95
2022/07/27 02:51:37;;;;;;;3.07;0.43;;;13.70;99.90;;;;;;6250345;22;20437;-93
2022/07/27 02:54:03;;;;;;;1.85;0.35;;;13.70;99.90;;;;;;6250561;22;20077;-94
2022/07/27 02:56:28;;;;;;;1.05;0.40;;;13.70;99.90;;;;;;6250006;22;20438;-94
2022/07/27 02:58:54;;;;;;;2.28;0.45;;;13.60;99.90;;;;;;6250322;22;20041;-92
2022/07/27 03:01:20;;;;;;;1.17;0.32;;;13.60;99.90;;;;;;6250496;22;20333;-94
2022/07/27 03:03:46;;;;;;;1.52;0.30;;;13.50;99.90;;;;;;6250342;22;20094;-95
2022/07/27 03:06:17;;;;;;;1.27;0.37;;;13.50;99.90;;;;;;6250110;22;20495;-92
2022/07/27 03:08:42;;;;;;;1.38;0.55;;;13.50;99.90;;;;;;6250918;22;20023;-92
2022/07/27 03:11:08;;;;;;;1.63;0.40;;;13.40;99.90;;;;;;6258588;22;20024;-88
2022/07/27 03:13:34;;;;;;;2.08;0.50;;;13.40;99.90;;;;;;6265741;22;20242;-92
2022/07/27 03:16:00;;;;;;;1.27;0.50;;;13.40;99.90;;;;;;6253899;22;20089;-94
2022/07/27 03:18:26;;;;;;;3.97;0.40;;;13.40;99.90;;;;;;6252395;22;20242;-92
2022/07/27 03:20:51;;;;;;;1.10;0.43;;;13.50;99.90;;;;;;6252347;22;20073;-93
2022/07/27 03:23:18;;;;;;;0.63;0.40;;;13.50;99.90;;;;;;6252447;22;20025;-92
2022/07/27 03:25:43;;;;;;;;;;;13.50;99.90;;;;;;6252675;22;20022;-92
2022/07/27 03:28:09;;;;;;;1.65;0.30;;;13.50;99.90;;;;;;6252267;22;19919;-92
2022/07/27 03:31:34;;;;;;;;;;;;;;;;;;;;;
2022/07/27 03:34:10;;;;;;;2.47;0.50;;;13.50;99.90;;;;;;6277306;22;20503;-95
2022/07/27 03:36:36;;;;;;;1.38;0.40;;;13.50;99.90;;;;;;6252008;22;20019;-95
2022/07/27 03:39:01;;;;;;;1.50;0.50;;;13.50;99.90;;;;;;6251963;22;20110;-95
2022/07/27 03:41:27;;;;;;;1.88;0.40;;;13.50;99.90;;;;;;6251999;22;20019;-93
2022/07/27 03:43:53;;;;;;;1.75;0.47;;;13.60;99.90;;;;;;6251974;22;20341;-93
2022/07/27 03:46:18;;;;;;;2.13;0.40;;;13.50;99.90;;;;;;6260071;22;20026;-91
2022/07/27 03:48:44;;;;;;;1.00;0.50;;;13.60;99.90;;;;;;6272022;22;20045;-91
2022/07/27 03:51:10;;;;;;;1.98;0.50;;;13.60;99.90;;;;;;6257271;22;20161;-94
2022/07/27 03:53:36;;;;;;;1.20;0.50;;;13.60;99.90;;;;;;6252302;22;20023;-93
2022/07/27 03:56:01;;;;;;;1.07;0.50;;;13.60;99.90;;;;;;6252100;22;20023;-91
2022/07/27 03:58:27;;;;;;;2.05;0.50;;;13.60;99.90;;;;;;6252464;22;20032;-92
2022/07/27 04:00:53;;;;;;;2.47;0.60;;;13.60;99.90;;;;;;6252162;22;20007;-93
2022/07/27 04:03:19;;;;;;;0.63;0.37;;;13.60;99.90;;;;;;6252396;22;20243;-94
2022/07/27 04:05:44;;;;;;;1.37;0.40;;;13.60;99.90;;;;;;6252063;22;20301;-92
2022/07/27 04:08:10;;;;;;;1.97;0.50;;;13.60;99.90;;;;;;6252091;22;20022;-94
2022/07/27 04:10:36;;;;;;;1.37;0.40;;;13.60;99.90;;;;;;6252115;22;20380;-94
2022/07/27 04:13:01;;;;;;;1.13;0.40;;;13.60;99.90;;;;;;6251812;22;20016;-95
2022/07/27 04:15:28;;;;;;;2.38;0.57;;;13.60;99.90;;;;;;6251793;22;20043;-93
2022/07/27 04:17:53;;;;;;;3.05;0.50;;;13.60;99.90;;;;;;6251906;22;20051;-95
2022/07/27 04:20:19;;;;;;;4.23;0.83;;;13.60;99.90;;;;;;6251679;22;20016;-94
2022/07/27 04:22:45;;;;;;;1.67;0.57;;;13.60;99.90;;;;;;6251612;22;20496;-93
2022/07/27 04:25:10;;;;;;;1.63;0.50;;;13.60;99.90;;;;;;6251508;22;20012;-93
2022/07/27 04:27:36;;;;;;;1.70;0.60;;;13.60;99.90;;;;;;6251747;22;20429;-92
2022/07/27 04:30:04;;;;;;;1.48;0.43;;;13.70;99.90;;;;;;6251537;22;20712;-93
2022/07/27 04:32:30;;;;;;;3.45;1.15;;;13.70;99.90;;;;;;6251495;22;20012;-93
2022/07/27 04:34:55;;;;;;;0.90;0.50;;;13.70;99.90;;;;;;6251613;22;20504;-92
2022/07/27 04:37:21;;;;;;;1.90;0.60;;;13.80;99.90;;;;;;6251608;22;20357;-94
2022/07/27 04:39:47;;;;;;;1.40;0.50;;;13.80;99.90;;;;;;6251496;22;20094;-94
2022/07/27 04:42:12;;;;;;;3.93;0.80;;;13.80;99.90;;;;;;6251864;22;20285;-90
2022/07/27 04:44:38;;;;;;;3.15;0.47;;;13.90;99.90;;;;;;6251642;22;20022;-92
2022/07/27 04:47:04;;;;;;;5.00;0.60;;;13.90;99.90;;;;;;6251704;22;20011;-94
2022/07/27 04:49:30;;;;;;;1.95;0.40;;;13.90;99.90;;;;;;6276666;22;20043;-93
2022/07/27 04:51:55;;;;;;;1.70;0.43;;;14.00;99.90;;;;;;6251689;22;20020;-92
2022/07/27 04:54:21;;;;;;;1.23;0.50;;;14.00;99.90;;;;;;6251413;22;20249;-91
2022/07/27 04:57:02;;;;;;;2.77;0.50;;;14.10;99.90;;;;;;6251197;22;20274;-95
2022/07/27 04:59:51;;;;;;;1.27;0.50;;;14.10;99.90;;;;;;6251342;22;20266;-93
2022/07/27 05:02:15;;;;;;;1.90;0.50;;;14.10;99.90;;;;;;6275902;22;20030;-92
2022/07/27 05:04:41;;;;;;;4.13;0.60;;;14.20;99.90;;;;;;6251390;22;20012;-95
2022/07/27 05:07:07;;;;;;;2.03;0.60;;;14.20;99.90;;;;;;6251391;22;20055;-93
2022/07/27 05:09:33;;;;;;;3.30;0.53;;;14.20;99.90;;;;;;6251183;22;20070;-96
2022/07/27 05:11:58;;;;;;;2.13;0.60;;;14.30;99.90;;;;;;6276950;22;20020;-96
2022/07/27 05:14:35;;;;;;;2.75;0.52;;;14.30;99.90;;;;;;6250886;22;20087;-94
2022/07/27 05:17:01;;;;;;;2.08;0.60;;;14.30;99.90;;;;;;6251225;22;20322;-96
2022/07/27 05:19:27;;;;;;;3.97;0.50;;;14.30;99.90;;;;;;6251576;22;20026;-92
2022/07/27 05:21:52;;;;;;;2.17;0.57;;;14.40;99.90;;;;;;6251084;22;20136;-93
2022/07/27 05:24:18;;;;;;;2.27;0.80;;;14.40;99.90;;;;;;6251239;22;20019;-95
2022/07/27 05:26:44;;;;;;;1.73;0.60;;;14.40;99.90;;;;;;6250987;22;20095;-92
2022/07/27 05:29:10;;;;;;;1.57;0.60;;;14.50;99.90;;;;;;6251061;22;20019;-95
2022/07/27 05:31:35;;;;;;;1.97;0.70;;;14.40;99.90;;;;;;6251063;22;20020;-96
2022/07/27 05:34:01;;;;;;;1.33;0.60;;;14.40;99.90;;;;;;6251341;22;20292;-91
2022/07/27 05:36:27;;;;;;;1.30;0.70;;;14.40;99.90;;;;;;6251377;22;20027;-96
2022/07/27 05:38:53;;;;;;;2.15;0.57;;;14.40;99.90;;;;;;6251701;22;20449;-96
2022/07/27 05:41:25;;;;;;;3.00;0.70;;;14.30;99.90;;;;;;6251939;22;20022;-96
2022/07/27 05:43:53;;;;;;;2.28;0.60;;;14.40;99.90;;;;;;6253351;22;20039;-96
2022/07/27 05:46:19;;;;;;;2.17;0.85;;;14.30;99.90;;;;;;6253222;22;20016;-96
2022/07/27 05:48:44;;;;;;;1.98;0.65;;;14.40;99.90;;;;;;6250975;22;20014;-91
2022/07/27 05:51:10;;;;;;;1.97;0.60;;;14.40;99.90;;;;;;6252007;22;20023;-93
2022/07/27 05:53:36;;;;;;;2.75;0.60;;;14.40;99.90;;;;;;6252293;22;20250;-96
2022/07/27 05:56:02;;;;;;;2.22;0.68;;;14.50;99.90;;;;;;6270803;22;20004;-88
2022/07/27 05:58:28;;;;;;;2.15;0.60;;;14.50;99.90;;;;;;6264375;22;20012;-93
2022/07/27 06:00:57;;;;;;;2.25;0.73;;;14.50;99.90;;;;;;6250580;22;20153;-96
2022/07/27 06:03:23;;;;;;;2.03;0.90;;;14.50;99.90;;;;;;6276201;22;20012;-94
2022/07/27 06:05:49;;;;;;;2.83;0.60;;;14.60;99.90;;;;;;6250636;22;20015;-93
2022/07/27 06:08:14;;;;;;;1.92;0.57;;;14.70;99.90;;;;;;6250315;22;20090;-93
2022/07/27 06:10:41;;;;;;;2.30;0.70;;;14.80;99.90;;;;;;6250848;22;20025;-91
2022/07/27 06:13:08;;;;;;;1.10;0.45;;;14.80;99.90;;;;;;6250792;22;20239;-95
2022/07/27 06:15:58;;;;;;;4.05;0.70;;;15.00;99.90;;;;;;6251713;22;20061;-89
2022/07/27 06:18:24;;;;;;;1.67;0.50;;;15.50;99.90;;;;;;6251083;22;20012;-91
2022/07/27 06:20:50;;;;;;;1.73;0.50;;;16.10;99.90;;;;;;6250747;22;20015;-95
2022/07/27 06:23:16;;;;;;;1.87;0.50;;;16.50;99.90;;;;;;6251479;22;20270;-94
2022/07/27 06:25:42;;;;;;;2.28;0.52;;;16.80;99.90;;;;;;6253995;22;20061;-92
2022/07/27 06:28:08;;;;;;;2.45;0.77;;;16.90;99.90;;;;;;6252661;22;20023;-95
2022/07/27 06:30:34;;;;;;;1.30;0.60;;;17.00;99.90;;;;;;6262266;22;19999;-90
2022/07/27 06:37:15;;;;;;;1.67;0.40;;;17.50;99.90;;;;;;6283909;22;20035;-96
2022/07/27 06:39:45;;;;;;;1.15;0.38;;;17.70;99.90;;;;;;6266795;22;20054;-92
2022/07/27 06:42:15;;;;;;;2.30;0.50;;;17.90;99.90;;;;;;6297097;22;19995;-92
2022/07/27 06:52:27;;;;;;;1.63;0.40;;;18.10;99.90;;;;;;6287789;22;20003;-96
2022/07/27 06:54:53;;;;;;;1.40;0.30;;;18.20;99.90;;;;;;6259454;22;20046;-91
2022/07/27 07:36:09;;;;;;;0.77;0.45;;;17.50;99.90;;;;;;6279943;22;20073;-96
2022/07/27 07:38:35;;;;;;;1.27;0.55;;;17.10;99.90;;;;;;6252433;22;20107;-95
2022/07/27 07:41:01;;;;;;;2.30;0.38;;;16.90;99.90;;;;;;6254421;22;20020;-96
2022/07/27 07:43:27;;;;;;;1.30;0.32;;;16.70;99.90;;;;;;6263090;22;20075;-96
2022/07/27 07:45:56;;;;;;;1.38;0.47;;;16.50;99.90;;;;;;6285754;22;20034;-94
2022/07/27 07:55:28;;;;;;;1.73;0.45;;;16.20;99.90;;;;;;6292475;22;20011;-96
2022/07/27 07:57:54;;;;;;;0.88;0.25;;;16.20;99.90;;;;;;6258368;22;20046;-92
2022/07/27 08:00:20;;;;;;;;;;;16.20;99.90;;;;;;6258645;22;20051;-93
2022/07/27 08:07:57;;;;;;;1.73;0.60;;;16.30;99.90;;;;;;6284613;22;20330;-94
2022/07/27 08:10:23;;;;;;;4.18;0.40;;;16.30;99.90;;;;;;6255345;22;20114;-96
2022/07/27 08:12:53;;;;;;;2.10;0.50;;;16.30;99.90;;;;;;6256676;22;20020;-90
2022/07/27 08:25:41;;;;;;;1.13;0.52;;;16.20;99.90;;;;;;6290964;22;20031;-90
2022/07/27 08:33:45;;;;;;;1.50;0.30;;;16.20;99.90;;;;;;6292469;22;20008;-91
2022/07/27 08:36:11;;;;;;;;;;;16.20;99.90;;;;;;6273976;22;20056;-90
2022/07/27 08:38:37;;;;;;;0.93;0.40;;;16.20;99.90;;;;;;6275724;22;19915;-90
2022/07/27 08:41:03;;;;;;;3.05;0.88;;;16.30;99.90;;;;;;6257109;22;20094;-90
2022/07/27 10:53:58;;;;;;;2.63;0.40;;;18.70;95.70;;;;;;6322297;22;20023;-96
2022/07/27 10:56:45;;;;;;;0.65;0.30;;;18.80;95.40;;;;;;6267882;22;20442;-93
2022/07/27 11:46:54;;;;;;;0.88;0.30;;;19.90;93.50;;;;;;6278645;22;20030;-95
2022/07/27 11:49:27;;;;;;;1.05;0.60;;;19.90;93.50;;;;;;6227893;22;20020;-95
2022/07/27 12:17:17;;;;;;;0.32;0.20;;;19.20;93.80;;;;;;6309564;22;20101;-92
2022/07/27 12:19:52;;;;;;;0.98;0.30;;;19.30;93.60;;;;;;6258385;22;20022;-93
2022/07/27 12:22:31;;;;;;;1.27;0.40;;;19.40;93.30;;;;;;6257487;22;20019;-94
2022/07/27 12:25:32;;;;;;;0.85;0.30;;;19.60;92.80;;;;;;6259166;22;20069;-93
2022/07/27 12:28:03;;;;;;;2.38;0.20;;;19.80;92.40;;;;;;6257443;22;20026;-89
2022/07/27 12:30:56;;;;;;;0.93;0.30;;;20.00;92.20;;;;;;6257629;22;20022;-95
2022/07/27 12:33:34;;;;;;;0.98;0.20;;;20.10;92.10;;;;;;6259679;22;20022;-95
2022/07/27 12:36:04;;;;;;;2.83;0.35;;;20.30;92.20;;;;;;6261096;22;20026;-95
2022/07/27 13:23:32;;;;;;;2.50;0.75;;;20.10;88.30;;;;;;6300724;22;20024;-92
2022/07/27 13:25:57;;;;;;;0.60;0.30;;;20.00;88.80;;;;;;6255101;22;20050;-95
2022/07/27 13:28:23;;;;;;;1.02;0.32;;;19.80;88.30;;;;;;6255503;22;20496;-93
2022/07/27 13:54:30;;;;;;;0.82;0.28;;;19.40;89.70;;;;;;6308364;22;20022;-93
2022/07/27 17:35:41;;;;;;;1.55;0.52;;;18.20;90.30;;;;;;6279515;22;20449;-91
2022/07/27 17:38:06;;;;;;;1.00;0.30;;;18.10;90.40;;;;;;6256880;22;20034;-94
2022/07/27 17:40:33;;;;;;;1.08;0.30;;;18.00;90.50;;;;;;6255695;22;20019;-94
2022/07/27 17:42:58;;;;;;;0.70;0.20;;;17.90;90.70;;;;;;6255769;22;20019;-91
2022/07/27 17:45:27;;;;;;;0.82;0.30;;;17.90;90.70;;;;;;6306788;22;20019;-90
2022/07/27 17:47:53;;;;;;;0.77;0.30;;;17.80;90.90;;;;;;6254730;22;20026;-91
2022/07/27 17:50:22;;;;;;;2.67;0.30;;;17.80;91.10;;;;;;6255415;22;20019;-91
2022/07/27 17:52:48;;;;;;;1.35;0.40;;;17.80;91.30;;;;;;6280503;22;20015;-96
2022/07/27 17:55:13;;;;;;;1.90;0.40;;;17.80;91.40;;;;;;6253548;22;20018;-93
2022/07/27 18:02:50;;;;;;;2.70;0.85;;;17.80;91.50;;;;;;6294580;22;20019;-95
2022/07/27 18:05:57;;;;;;;2.85;0.65;;;17.90;91.50;;;;;;6255615;22;20478;-95
2022/07/27 18:08:26;;;;;;;0.90;0.30;;;17.90;91.60;;;;;;6217347;22;20019;-92
2022/07/27 18:10:51;;;;;;;3.15;0.45;;;17.80;91.40;;;;;;6255541;22;20015;-92
2022/07/27 18:13:18;;;;;;;2.03;0.40;;;17.80;91.40;;;;;;6255555;22;20015;-92
2022/07/27 19:11:29;;;;;;;2.15;1.00;;;16.70;93.60;;;;;;6307248;22;20023;-92
2022/07/27 19:13:56;;;;;;;2.88;1.20;;;16.70;93.70;;;;;;6255629;22;20055;-93
2022/07/27 19:16:23;;;;;;;2.78;1.10;;;16.70;94.00;;;;;;6255275;22;20472;-96
2022/07/27 19:18:49;;;;;;;2.10;1.15;;;16.60;94.10;;;;;;6255517;22;20019;-94
2022/07/27 19:21:46;;;;;;;2.83;1.10;;;16.60;94.10;;;;;;6255768;22;20018;-93
2022/07/27 19:24:52;;;;;;;2.60;1.30;;;16.60;94.30;;;;;;6255700;22;20011;-92
2022/07/27 19:27:21;;;;;;;5.32;2.00;;;16.60;94.50;;;;;;6281787;22;20018;-93
2022/07/27 19:29:47;;;;;;;2.80;1.40;;;16.60;94.60;;;;;;6255295;22;20043;-94
2022/07/27 19:32:13;;;;;;;2.70;1.67;;;16.50;94.60;;;;;;6255382;22;20046;-91
2022/07/27 19:34:39;;;;;;;2.70;1.30;;;16.50;94.70;;;;;;6255753;22;20116;-95
2022/07/27 19:39:39;;;;;;;1.60;0.60;;;16.40;95.10;;;;;;6246667;22;20023;-94
2022/07/27 19:42:05;;;;;;;1.83;0.63;;;16.40;95.20;;;;;;6229056;22;20083;-96
2022/07/27 19:45:02;;;;;;;2.35;0.85;;;16.30;95.20;;;;;;6248568;22;20000;-95
2022/07/27 19:47:27;;;;;;;1.98;1.00;;;16.30;95.40;;;;;;6222577;23;20020;-96
2022/07/27 19:49:53;;;;;;;1.13;0.60;;;16.20;95.50;;;;;;6219995;23;20023;-94
2022/07/27 19:52:20;;;;;;;2.30;0.73;;;16.20;95.50;;;;;;6220906;23;20008;-96
2022/07/27 19:54:45;;;;;;;;;;;16.20;95.70;;;;;;6227801;22;20045;-96
2022/07/27 19:57:14;;;;;;;2.03;0.50;;;16.10;96.00;;;;;;6253880;22;19915;-95
2022/07/27 19:59:40;;;;;;;1.25;0.60;;;16.10;95.90;;;;;;6228403;22;20070;-96
2022/07/27 20:02:06;;;;;;;2.20;0.65;;;16.00;95.90;;;;;;6228646;22;20019;-96
2022/07/27 20:04:31;;;;;;;2.13;0.70;;;16.00;96.00;;;;;;6228967;22;20022;-96
2022/07/27 21:51:43;;;;;;;3.63;0.55;;;14.40;99.10;;;;;;6307914;22;20023;-91
2022/07/27 21:54:08;;;;;;;1.52;0.50;;;14.40;99.20;;;;;;6256349;22;20448;-91
2022/07/27 21:56:34;;;;;;;0.70;0.40;;;14.40;99.20;;;;;;6256049;22;20093;-94
2022/07/27 21:59:03;;;;;;;2.22;0.60;;;14.40;99.20;;;;;;6255705;22;20022;-91
2022/07/27 22:01:34;;;;;;;1.00;0.45;;;14.30;99.10;;;;;;6255795;22;20012;-94
2022/07/27 22:04:00;;;;;;;1.10;0.40;;;14.30;99.20;;;;;;6255106;22;20019;-95
2022/07/27 22:48:55;;;;;;;2.25;0.80;;;13.80;99.90;;;;;;6315097;22;20479;-92
2022/07/27 22:51:22;;;;;;;1.60;0.70;;;13.80;99.90;;;;;;6262500;22;20023;-93
2022/07/27 22:53:50;;;;;;;2.17;0.90;;;13.80;99.90;;;;;;6291605;22;20345;-93
2022/07/27 22:56:15;;;;;;;3.15;0.95;;;13.70;99.90;;;;;;6263861;22;20023;-95
2022/07/27 22:58:42;;;;;;;2.15;0.98;;;13.70;99.90;;;;;;6267489;22;20020;-93
2022/07/27 23:29:37;;;;;;;2.00;0.85;;;13.50;99.90;;;;;;6309549;22;20030;-90
2022/07/27 23:32:04;;;;;;;2.10;0.90;;;13.50;99.90;;;;;;6258690;22;20019;-96
2022/07/27 23:34:30;;;;;;;3.22;1.13;;;13.50;99.90;;;;;;6258717;22;20337;-95
2022/07/27 23:36:56;;;;;;;3.50;0.97;;;13.50;99.90;;;;;;6258913;22;20161;-93
2022/07/27 23:39:22;;;;;;;2.55;0.90;;;13.50;99.90;;;;;;6256997;22;20022;-95
2022/07/27 23:41:47;;;;;;;2.72;0.95;;;13.40;99.90;;;;;;6257490;22;20030;-92
2022/07/27 23:44:13;;;;;;;2.27;0.90;;;13.40;99.90;;;;;;6257447;22;20022;-95
2022/07/27 23:46:39;;;;;;;3.20;1.00;;;13.40;99.90;;;;;;6257241;22;20261;-91
2022/07/27 23:49:04;;;;;;;1.93;0.90;;;13.30;99.90;;;;;;6257749;22;20014;-93
2022/07/27 23:51:30;;;;;;;2.03;0.80;;;13.30;99.90;;;;;;6257179;22;20098;-94
2022/07/27 23:53:56;;;;;;;1.60;0.77;;;13.30;99.90;;;;;;6257912;22;20341;-95
2022/07/27 23:57:01;;;;;;;1.63;0.70;;;13.30;99.90;;;;;;6257419;22;20261;-95
2022/07/27 23:59:27;;;;;;;2.13;0.68;;;13.30;99.90;;;;;;6235934;22;20104;-94
